Time;durP1;ratioP1;P1;durP2;ratioP2;P2;SDS_P1;SDS_P2;PMS_P1;PMS_P2;Temp;Humidity;BMP_temperature;BMP_pressure;BME280_temperature;BME280_humidity;BME280_pressure;Samples;Min_cycle;Max_cycle;Signal;HPM_P1;HPM_P2
2023/07/05 00:01:14;;;;;;;9.25;5.38;;;;;;;;;;5032721;28;20526;-76
2023/07/05 00:03:40;;;;;;;10.63;5.57;;;;;;;;;;5033343;28;20046;-76
2023/07/05 00:06:06;;;;;;;11.77;4.50;;;;;;;;;;5032695;28;20094;-76
2023/07/05 00:08:33;;;;;;;8.43;4.75;;;;;;;;;;5032921;28;20049;-76
2023/07/05 00:11:03;;;;;;;9.57;4.35;;;;;;;;;;5033283;28;20116;-76
2023/07/05 00:13:29;;;;;;;6.57;4.63;;;;;;;;;;5031682;28;20038;-76
2023/07/05 00:15:55;;;;;;;9.73;4.22;;;;;;;;;;5014871;28;20099;-76
2023/07/05 00:18:21;;;;;;;11.45;5.07;;;;;;;;;;5032956;28;20081;-76
2023/07/05 00:20:47;;;;;;;10.27;5.18;;;;;;;;;;5032775;28;20041;-76
2023/07/05 00:23:13;;;;;;;8.85;5.35;;;;;;;;;;5032723;28;20053;-76
2023/07/05 00:25:39;;;;;;;8.32;5.07;;;;;;;;;;5032381;28;20443;-76
2023/07/05 00:28:05;;;;;;;11.98;5.75;;;;;;;;;;5032437;28;20129;-76
2023/07/05 00:30:31;;;;;;;9.82;5.65;;;;;;;;;;5032890;28;20488;-76
2023/07/05 00:32:57;;;;;;;10.20;5.95;;;;;;;;;;5032676;28;20380;-76
2023/07/05 00:35:24;;;;;;;11.57;5.68;;;;;;;;;;5032610;28;20076;-75
2023/07/05 00:37:50;;;;;;;10.55;6.35;;;;;;;;;;5032818;28;20124;-75
2023/07/05 00:40:16;;;;;;;10.73;5.35;;;;;;;;;;5036689;28;20041;-75
2023/07/05 00:42:42;;;;;;;9.32;6.05;;;;;;;;;;5038074;28;20037;-75
2023/07/05 00:45:11;;;;;;;14.13;6.93;;;;;;;;;;5037153;28;20041;-76
2023/07/05 00:47:42;;;;;;;12.57;6.47;;;;;;;;;;5034826;28;20049;-76
2023/07/05 00:50:17;;;;;;;12.45;7.00;;;;;;;;;;5037109;28;20041;-75
2023/07/05 00:52:44;;;;;;;12.40;6.32;;;;;;;;;;5033425;28;20057;-76
2023/07/05 00:55:11;;;;;;;10.60;6.38;;;;;;;;;;5032666;28;20041;-76
2023/07/05 00:57:38;;;;;;;10.95;6.80;;;;;;;;;;5032603;28;20041;-76
2023/07/05 01:00:08;;;;;;;11.95;6.72;;;;;;;;;;5032787;28;20045;-76
2023/07/05 01:02:38;;;;;;;10.55;6.22;;;;;;;;;;5034796;28;20408;-77
2023/07/05 01:05:05;;;;;;;10.52;6.15;;;;;;;;;;5036322;28;20057;-76
2023/07/05 01:07:32;;;;;;;10.23;6.03;;;;;;;;;;5035791;28;20037;-77
2023/07/05 01:09:58;;;;;;;11.90;7.25;;;;;;;;;;5036162;28;20045;-76
2023/07/05 01:12:27;;;;;;;9.40;7.03;;;;;;;;;;5035855;28;20049;-75
2023/07/05 01:14:53;;;;;;;10.88;6.30;;;;;;;;;;5035737;28;20053;-75
2023/07/05 01:17:38;;;;;;;10.93;6.65;;;;;;;;;;5035888;28;20077;-75
2023/07/05 01:20:23;;;;;;;9.63;6.32;;;;;;;;;;5035900;28;20049;-75
2023/07/05 01:22:52;;;;;;;10.82;6.65;;;;;;;;;;5034721;28;20042;-75
2023/07/05 01:25:36;;;;;;;14.18;7.05;;;;;;;;;;5035240;28;20124;-75
2023/07/05 01:28:21;;;;;;;10.85;7.72;;;;;;;;;;5035566;28;20049;-75
2023/07/05 01:30:53;;;;;;;12.93;7.32;;;;;;;;;;5035808;28;20068;-76
2023/07/05 01:33:41;;;;;;;10.77;7.40;;;;;;;;;;5036128;28;20107;-77
2023/07/05 01:36:08;;;;;;;9.55;7.85;;;;;;;;;;5035410;28;20500;-77
2023/07/05 01:38:34;;;;;;;13.95;7.85;;;;;;;;;;5035534;28;20075;-76
2023/07/05 01:41:03;;;;;;;10.93;8.25;;;;;;;;;;5035423;28;20124;-75
2023/07/05 01:43:30;;;;;;;16.27;8.10;;;;;;;;;;5035220;28;20038;-76
2023/07/05 01:46:06;;;;;;;16.23;8.77;;;;;;;;;;5035606;28;20472;-76
2023/07/05 01:48:36;;;;;;;12.52;7.93;;;;;;;;;;5035489;28;20037;-77
2023/07/05 01:51:07;;;;;;;15.27;7.95;;;;;;;;;;5035030;28;20394;-76
2023/07/05 01:53:35;;;;;;;13.65;8.55;;;;;;;;;;5035516;28;20049;-75
2023/07/05 01:56:09;;;;;;;12.98;8.05;;;;;;;;;;5020215;28;20080;-76
2023/07/05 01:58:40;;;;;;;14.07;7.95;;;;;;;;;;5015420;28;20177;-76
2023/07/05 02:01:07;;;;;;;15.68;7.35;;;;;;;;;;5015356;28;20045;-75
2023/07/05 02:03:34;;;;;;;14.40;8.07;;;;;;;;;;5015400;28;20052;-76
2023/07/05 02:06:00;;;;;;;12.27;8.27;;;;;;;;;;5015243;28;20100;-76
2023/07/05 02:08:29;;;;;;;12.45;7.97;;;;;;;;;;5015172;28;20053;-76
2023/07/05 02:10:55;;;;;;;13.55;9.10;;;;;;;;;;5014519;28;20073;-76
2023/07/05 02:13:21;;;;;;;15.32;8.20;;;;;;;;;;5015268;28;20100;-75
2023/07/05 02:15:50;;;;;;;15.15;8.48;;;;;;;;;;5022813;28;20053;-76
2023/07/05 02:18:17;;;;;;;17.38;10.20;;;;;;;;;;5034640;28;20095;-76
2023/07/05 02:20:43;;;;;;;13.52;8.82;;;;;;;;;;5034803;28;20089;-75
2023/07/05 02:23:09;;;;;;;12.18;8.52;;;;;;;;;;5033443;28;20076;-75
2023/07/05 02:25:35;;;;;;;13.93;9.48;;;;;;;;;;5034259;28;20095;-75
2023/07/05 02:28:06;;;;;;;16.80;9.93;;;;;;;;;;5034737;28;20053;-75
2023/07/05 02:30:34;;;;;;;13.57;9.85;;;;;;;;;;5034475;28;20087;-75
2023/07/05 02:33:00;;;;;;;14.80;10.55;;;;;;;;;;5034564;28;20060;-75
2023/07/05 02:35:26;;;;;;;14.35;10.30;;;;;;;;;;5034322;28;20046;-75
2023/07/05 02:37:52;;;;;;;11.65;9.57;;;;;;;;;;5034626;28;20193;-75
2023/07/05 02:40:18;;;;;;;18.05;10.35;;;;;;;;;;5034484;28;20045;-74
2023/07/05 02:42:45;;;;;;;16.70;10.35;;;;;;;;;;5034357;28;20049;-74
2023/07/05 02:45:11;;;;;;;14.48;10.70;;;;;;;;;;5034158;28;20053;-74
2023/07/05 02:47:37;;;;;;;16.33;9.75;;;;;;;;;;5034075;28;20041;-75
2023/07/05 02:50:03;;;;;;;16.50;9.63;;;;;;;;;;5034555;28;20048;-75
2023/07/05 02:52:29;;;;;;;16.17;10.70;;;;;;;;;;5034239;28;20052;-75
2023/07/05 02:54:56;;;;;;;15.93;10.25;;;;;;;;;;5034082;28;20468;-76
2023/07/05 02:57:22;;;;;;;14.48;9.48;;;;;;;;;;5034499;28;20132;-75
2023/07/05 02:59:48;;;;;;;13.30;10.68;;;;;;;;;;5033970;28;20041;-75
2023/07/05 03:02:14;;;;;;;17.40;11.75;;;;;;;;;;5033939;28;20052;-76
2023/07/05 03:04:42;;;;;;;13.13;9.43;;;;;;;;;;5033830;28;20045;-76
2023/07/05 03:07:08;;;;;;;15.88;11.10;;;;;;;;;;5033735;28;20045;-76
2023/07/05 03:09:34;;;;;;;17.20;11.77;;;;;;;;;;5034056;28;20037;-77
2023/07/05 03:12:00;;;;;;;22.85;11.85;;;;;;;;;;5033906;28;20053;-77
2023/07/05 03:14:26;;;;;;;16.95;10.82;;;;;;;;;;5034178;28;20083;-77
2023/07/05 03:16:52;;;;;;;17.65;11.52;;;;;;;;;;5033140;28;20037;-77
2023/07/05 03:19:18;;;;;;;15.50;10.77;;;;;;;;;;5032599;28;20041;-77
2023/07/05 03:21:44;;;;;;;16.73;11.27;;;;;;;;;;5033640;28;20081;-78
2023/07/05 03:24:10;;;;;;;16.48;11.25;;;;;;;;;;5032655;28;20111;-77
2023/07/05 03:26:36;;;;;;;17.33;11.65;;;;;;;;;;5033511;28;20083;-77
2023/07/05 03:29:03;;;;;;;18.73;12.57;;;;;;;;;;5033623;28;20107;-76
2023/07/05 03:31:29;;;;;;;18.58;11.85;;;;;;;;;;5033401;28;20049;-76
2023/07/05 03:33:55;;;;;;;16.30;11.88;;;;;;;;;;5033380;28;20041;-76
2023/07/05 03:36:22;;;;;;;17.85;12.23;;;;;;;;;;5033543;28;20048;-78
2023/07/05 03:38:51;;;;;;;16.67;11.90;;;;;;;;;;5033240;28;20049;-77
2023/07/05 03:41:24;;;;;;;17.40;12.60;;;;;;;;;;5033219;28;20049;-76
2023/07/05 03:43:54;;;;;;;16.15;12.50;;;;;;;;;;5033096;28;20394;-76
2023/07/05 03:46:20;;;;;;;18.95;12.52;;;;;;;;;;5032706;28;20044;-75
2023/07/05 03:48:46;;;;;;;19.92;13.15;;;;;;;;;;5033306;28;20037;-75
2023/07/05 03:51:17;;;;;;;16.60;12.48;;;;;;;;;;5033035;28;20130;-76
2023/07/05 03:53:43;;;;;;;19.90;14.15;;;;;;;;;;5032968;28;20041;-75
2023/07/05 03:56:10;;;;;;;18.65;12.43;;;;;;;;;;5017015;28;20116;-75
2023/07/05 03:58:36;;;;;;;21.80;14.68;;;;;;;;;;5013600;28;20045;-75
2023/07/05 04:01:04;;;;;;;17.10;13.13;;;;;;;;;;5013000;28;20571;-75
2023/07/05 04:03:30;;;;;;;19.88;14.15;;;;;;;;;;5013189;28;20459;-75
2023/07/05 04:05:56;;;;;;;18.67;14.43;;;;;;;;;;5013225;28;20061;-75
2023/07/05 04:08:22;;;;;;;19.85;13.30;;;;;;;;;;5013479;28;20084;-75
2023/07/05 04:10:49;;;;;;;15.50;11.90;;;;;;;;;;5013264;28;20069;-75
2023/07/05 04:13:15;;;;;;;14.55;11.80;;;;;;;;;;5013368;28;20048;-75
2023/07/05 04:15:41;;;;;;;16.48;11.85;;;;;;;;;;5020120;28;20495;-76
2023/07/05 04:18:07;;;;;;;15.88;11.50;;;;;;;;;;5035012;28;20373;-76
2023/07/05 04:20:36;;;;;;;15.85;11.32;;;;;;;;;;5036327;28;20071;-76
2023/07/05 04:23:02;;;;;;;15.32;11.65;;;;;;;;;;5037287;28;20080;-76
2023/07/05 04:25:28;;;;;;;16.58;11.38;;;;;;;;;;5033508;28;20037;-76
2023/07/05 04:27:54;;;;;;;16.15;11.07;;;;;;;;;;5033307;28;20089;-76
2023/07/05 04:30:20;;;;;;;16.38;11.90;;;;;;;;;;5033222;28;20107;-76
2023/07/05 04:32:46;;;;;;;16.67;12.15;;;;;;;;;;5031793;28;20045;-76
2023/07/05 04:35:13;;;;;;;15.15;11.55;;;;;;;;;;5034752;28;20239;-76
2023/07/05 04:37:39;;;;;;;15.57;11.23;;;;;;;;;;5036360;28;20156;-76
2023/07/05 04:40:05;;;;;;;14.80;11.10;;;;;;;;;;5036336;28;20503;-76
2023/07/05 04:42:32;;;;;;;16.42;11.68;;;;;;;;;;5036611;28;20131;-76
2023/07/05 04:44:58;;;;;;;16.08;11.40;;;;;;;;;;5036828;28;20045;-76
2023/07/05 04:47:24;;;;;;;16.27;10.95;;;;;;;;;;5036400;28;20129;-76
2023/07/05 04:49:50;;;;;;;15.60;10.57;;;;;;;;;;5036344;28;20076;-76
2023/07/05 04:52:16;;;;;;;13.90;10.23;;;;;;;;;;5036251;28;20057;-75
2023/07/05 04:54:42;;;;;;;14.13;9.15;;;;;;;;;;5036388;28;20045;-76
2023/07/05 04:57:08;;;;;;;12.15;9.48;;;;;;;;;;5036079;28;20046;-76
2023/07/05 04:59:34;;;;;;;11.85;8.85;;;;;;;;;;5036225;28;20053;-76
2023/07/05 05:02:02;;;;;;;11.65;8.27;;;;;;;;;;5036075;28;20042;-76
2023/07/05 05:04:28;;;;;;;12.35;8.27;;;;;;;;;;5035998;28;20430;-75
2023/07/05 05:06:55;;;;;;;12.95;8.13;;;;;;;;;;5036004;28;20507;-76
2023/07/05 05:09:21;;;;;;;10.95;8.32;;;;;;;;;;5035975;28;20064;-76
2023/07/05 05:11:47;;;;;;;8.80;6.38;;;;;;;;;;5036036;28;20056;-76
2023/07/05 05:14:13;;;;;;;8.10;5.72;;;;;;;;;;5036299;28;20078;-75
2023/07/05 05:16:39;;;;;;;7.75;5.15;;;;;;;;;;5035916;28;20108;-76
2023/07/05 05:19:05;;;;;;;7.65;5.22;;;;;;;;;;5036234;28;20472;-75
2023/07/05 05:21:31;;;;;;;6.45;4.53;;;;;;;;;;5035600;28;20495;-76
2023/07/05 05:23:57;;;;;;;7.40;4.57;;;;;;;;;;5035466;28;20408;-75
2023/07/05 05:26:23;;;;;;;7.10;5.07;;;;;;;;;;5035240;28;20396;-76
2023/07/05 05:28:49;;;;;;;7.80;4.38;;;;;;;;;;5035967;28;20049;-76
2023/07/05 05:31:15;;;;;;;6.53;4.38;;;;;;;;;;5035977;28;20121;-76
2023/07/05 05:33:41;;;;;;;6.25;4.53;;;;;;;;;;5035496;28;20041;-76
2023/07/05 05:36:07;;;;;;;6.72;5.00;;;;;;;;;;5035566;28;20557;-77
2023/07/05 05:38:35;;;;;;;8.95;4.65;;;;;;;;;;5035459;28;20050;-76
2023/07/05 05:41:02;;;;;;;7.55;5.07;;;;;;;;;;5034845;28;20049;-76
2023/07/05 05:43:28;;;;;;;6.75;4.53;;;;;;;;;;5035517;28;20049;-76
2023/07/05 05:45:54;;;;;;;6.57;4.95;;;;;;;;;;5034720;28;20057;-77
2023/07/05 05:48:20;;;;;;;6.82;4.55;;;;;;;;;;5035578;28;20049;-77
2023/07/05 05:50:47;;;;;;;6.20;4.28;;;;;;;;;;5034949;28;20049;-76
2023/07/05 05:53:13;;;;;;;8.02;5.40;;;;;;;;;;5035373;28;20049;-76
2023/07/05 05:55:40;;;;;;;8.27;5.10;;;;;;;;;;5035267;28;20069;-76
2023/07/05 05:58:07;;;;;;;8.30;4.95;;;;;;;;;;5035314;28;20037;-77
2023/07/05 06:00:33;;;;;;;6.80;4.88;;;;;;;;;;5035375;28;20050;-77
2023/07/05 06:02:59;;;;;;;6.68;4.90;;;;;;;;;;5033596;28;20057;-77
2023/07/05 06:05:25;;;;;;;12.38;5.05;;;;;;;;;;5034803;28;20079;-77
2023/07/05 06:07:52;;;;;;;7.80;5.18;;;;;;;;;;5035268;28;20045;-77
2023/07/05 06:10:18;;;;;;;6.93;5.22;;;;;;;;;;5035434;28;20076;-76
2023/07/05 06:12:44;;;;;;;8.50;5.40;;;;;;;;;;5034544;28;20049;-77
2023/07/05 06:15:11;;;;;;;7.20;5.07;;;;;;;;;;5034930;28;20041;-77
2023/07/05 06:17:38;;;;;;;6.10;4.15;;;;;;;;;;5034875;28;20045;-76
2023/07/05 06:20:07;;;;;;;6.07;4.75;;;;;;;;;;5035038;28;20041;-76
2023/07/05 06:22:34;;;;;;;6.38;4.53;;;;;;;;;;5033212;28;20080;-77
2023/07/05 06:25:00;;;;;;;7.10;4.47;;;;;;;;;;5032913;28;20046;-77
2023/07/05 06:27:26;;;;;;;7.07;5.15;;;;;;;;;;5032875;28;20065;-77
2023/07/05 06:29:52;;;;;;;6.82;4.63;;;;;;;;;;5034551;28;20522;-76
2023/07/05 06:32:18;;;;;;;6.80;4.40;;;;;;;;;;5034287;28;20412;-76
2023/07/05 06:34:44;;;;;;;7.43;4.60;;;;;;;;;;5034602;28;20064;-76
2023/07/05 06:37:11;;;;;;;7.45;4.90;;;;;;;;;;5034015;28;20594;-77
2023/07/05 06:39:37;;;;;;;7.43;4.53;;;;;;;;;;5034304;28;20053;-76
2023/07/05 06:42:04;;;;;;;5.85;4.88;;;;;;;;;;5034143;28;20466;-76
2023/07/05 06:44:30;;;;;;;5.65;4.47;;;;;;;;;;5034132;28;20046;-76
2023/07/05 06:46:56;;;;;;;5.60;4.38;;;;;;;;;;5033998;28;20052;-76
2023/07/05 06:49:22;;;;;;;6.82;4.05;;;;;;;;;;5033653;28;20037;-76
2023/07/05 06:51:48;;;;;;;6.50;4.32;;;;;;;;;;5033316;28;20049;-76
2023/07/05 06:54:14;;;;;;;5.03;3.70;;;;;;;;;;5033654;28;20049;-77
2023/07/05 06:56:40;;;;;;;5.95;4.10;;;;;;;;;;5014039;28;20172;-77
2023/07/05 06:59:06;;;;;;;5.13;3.65;;;;;;;;;;5014053;28;20495;-76
2023/07/05 07:01:32;;;;;;;5.35;3.72;;;;;;;;;;5013757;28;20526;-76
2023/07/05 07:03:58;;;;;;;6.57;3.78;;;;;;;;;;5014223;28;20120;-76
2023/07/05 07:06:24;;;;;;;5.28;3.50;;;;;;;;;;5013576;28;20050;-76
2023/07/05 07:08:50;;;;;;;4.03;2.90;;;;;;;;;;5013615;28;20077;-76
2023/07/05 07:11:16;;;;;;;5.07;3.03;;;;;;;;;;5013790;28;20038;-76
2023/07/05 07:13:42;;;;;;;5.43;3.33;;;;;;;;;;5013928;28;20056;-76
2023/07/05 07:16:10;;;;;;;6.50;3.42;;;;;;;;;;5024618;28;20045;-76
2023/07/05 07:18:37;;;;;;;4.15;2.90;;;;;;;;;;5033726;28;20128;-76
2023/07/05 07:21:05;;;;;;;6.07;2.80;;;;;;;;;;5033279;28;20060;-77
2023/07/05 07:23:31;;;;;;;4.47;3.00;;;;;;;;;;5033636;28;20041;-76
2023/07/05 07:26:17;;;;;;;3.67;2.70;;;;;;;;;;5033595;28;20084;-76
2023/07/05 07:28:46;;;;;;;5.18;3.08;;;;;;;;;;5033664;28;20077;-77
2023/07/05 07:31:14;;;;;;;4.85;2.85;;;;;;;;;;5032825;28;20495;-76
2023/07/05 07:33:40;;;;;;;6.80;3.20;;;;;;;;;;5033265;28;20435;-76
2023/07/05 07:36:13;;;;;;;4.43;2.97;;;;;;;;;;5033213;28;20041;-76
2023/07/05 07:38:40;;;;;;;5.10;2.90;;;;;;;;;;5033512;28;20051;-76
2023/07/05 07:41:12;;;;;;;4.93;2.70;;;;;;;;;;5032810;28;20037;-76
2023/07/05 07:43:38;;;;;;;3.70;2.78;;;;;;;;;;5033414;28;20099;-76
2023/07/05 07:46:11;;;;;;;4.68;3.15;;;;;;;;;;5033324;28;20048;-76
2023/07/05 07:48:38;;;;;;;5.18;3.28;;;;;;;;;;5033189;28;20041;-76
2023/07/05 07:51:04;;;;;;;4.07;2.67;;;;;;;;;;5033134;28;20042;-75
2023/07/05 07:53:30;;;;;;;2.75;1.73;;;;;;;;;;5033084;28;20051;-75
2023/07/05 07:55:56;;;;;;;2.28;1.35;;;;;;;;;;5021505;28;20045;-75
2023/07/05 07:58:22;;;;;;;1.35;1.05;;;;;;;;;;5019048;28;20172;-76
2023/07/05 08:00:48;;;;;;;2.88;1.40;;;;;;;;;;5018783;28;20149;-76
2023/07/05 08:03:14;;;;;;;2.53;1.40;;;;;;;;;;5015304;28;20453;-76
2023/07/05 08:05:40;;;;;;;4.13;1.77;;;;;;;;;;5013616;28;20153;-76
2023/07/05 08:08:06;;;;;;;2.72;1.52;;;;;;;;;;5013817;28;20132;-76
2023/07/05 08:10:32;;;;;;;2.20;1.70;;;;;;;;;;5015493;28;20056;-76
2023/07/05 08:12:58;;;;;;;2.33;1.70;;;;;;;;;;5017003;28;20085;-78
2023/07/05 08:15:24;;;;;;;3.00;1.67;;;;;;;;;;5021974;28;20045;-76
2023/07/05 08:17:50;;;;;;;2.38;1.70;;;;;;;;;;5036947;28;20480;-75
2023/07/05 08:20:17;;;;;;;4.30;2.10;;;;;;;;;;5037001;28;20045;-75
2023/07/05 08:22:43;;;;;;;2.55;1.52;;;;;;;;;;5036992;28;20045;-75
2023/07/05 08:25:09;;;;;;;1.88;1.30;;;;;;;;;;5035487;28;20344;-75
2023/07/05 08:27:35;;;;;;;2.42;1.40;;;;;;;;;;5037134;28;20466;-75
2023/07/05 08:30:01;;;;;;;2.90;1.30;;;;;;;;;;5037091;28;20053;-75
2023/07/05 08:32:27;;;;;;;1.55;1.42;;;;;;;;;;5036576;28;20461;-75
2023/07/05 08:34:54;;;;;;;2.22;1.70;;;;;;;;;;5036568;28;20511;-75
2023/07/05 08:37:20;;;;;;;3.38;1.40;;;;;;;;;;5036740;28;20041;-75
2023/07/05 08:39:46;;;;;;;2.38;1.35;;;;;;;;;;5036813;28;20044;-75
2023/07/05 08:42:21;;;;;;;1.63;1.50;;;;;;;;;;5036270;28;20480;-75
2023/07/05 08:44:58;;;;;;;1.75;1.38;;;;;;;;;;5036378;28;20065;-75
2023/07/05 08:47:32;;;;;;;1.67;1.33;;;;;;;;;;5036792;28;20121;-75
2023/07/05 08:50:19;;;;;;;2.42;1.30;;;;;;;;;;5036392;28;20156;-75
2023/07/05 08:52:46;;;;;;;2.67;1.80;;;;;;;;;;5036680;28;20091;-75
2023/07/05 08:55:14;;;;;;;4.32;1.65;;;;;;;;;;5028508;28;20037;-75
2023/07/05 08:57:45;;;;;;;3.53;1.63;;;;;;;;;;5016854;28;20393;-77
2023/07/05 09:00:14;;;;;;;3.13;1.40;;;;;;;;;;5016020;28;20408;-77
2023/07/05 09:02:40;;;;;;;2.83;1.25;;;;;;;;;;5016749;28;20161;-76
2023/07/05 09:05:15;;;;;;;3.45;1.60;;;;;;;;;;5016298;28;20044;-75
2023/07/05 09:07:41;;;;;;;2.97;1.73;;;;;;;;;;5016555;28;20045;-75
2023/07/05 09:10:18;;;;;;;2.42;1.65;;;;;;;;;;5016012;28;20049;-77
2023/07/05 09:12:57;;;;;;;3.22;2.08;;;;;;;;;;5016779;28;20054;-77
2023/07/05 09:15:29;;;;;;;6.95;2.25;;;;;;;;;;5021148;28;20052;-77
2023/07/05 09:18:17;;;;;;;5.80;2.38;;;;;;;;;;5035884;28;20046;-77
2023/07/05 09:21:02;;;;;;;6.15;2.38;;;;;;;;;;5035893;28;20048;-78
2023/07/05 09:23:30;;;;;;;5.45;2.63;;;;;;;;;;5036093;28;20037;-77
2023/07/05 09:26:10;;;;;;;5.75;2.70;;;;;;;;;;5035787;28;20073;-77
2023/07/05 09:28:42;;;;;;;4.43;2.30;;;;;;;;;;5035850;28;20072;-78
2023/07/05 09:31:12;;;;;;;6.40;2.17;;;;;;;;;;5035561;28;20076;-76
2023/07/05 09:33:44;;;;;;;6.57;2.17;;;;;;;;;;5035513;28;20060;-75
2023/07/05 09:36:18;;;;;;;5.82;2.60;;;;;;;;;;5035283;28;20052;-75
2023/07/05 09:38:46;;;;;;;5.93;2.45;;;;;;;;;;5036110;28;20060;-74
2023/07/05 09:41:14;;;;;;;4.88;2.80;;;;;;;;;;5035345;28;20427;-74
2023/07/05 09:43:40;;;;;;;4.53;2.63;;;;;;;;;;5035690;28;20117;-74
2023/07/05 09:46:07;;;;;;;7.05;2.35;;;;;;;;;;5035167;28;20072;-76
2023/07/05 09:48:40;;;;;;;4.88;2.40;;;;;;;;;;5035159;28;20041;-75
2023/07/05 09:51:07;;;;;;;4.10;2.35;;;;;;;;;;5035106;28;20092;-75
2023/07/05 09:53:42;;;;;;;5.00;2.42;;;;;;;;;;5035419;28;20048;-75
2023/07/05 09:56:16;;;;;;;4.38;2.22;;;;;;;;;;5019393;28;20097;-75
2023/07/05 09:58:48;;;;;;;5.28;2.10;;;;;;;;;;5015238;28;20081;-76
2023/07/05 10:01:16;;;;;;;2.92;1.80;;;;;;;;;;5014686;28;20486;-76
2023/07/05 10:03:49;;;;;;;5.63;2.20;;;;;;;;;;5015537;28;20042;-76
2023/07/05 10:06:18;;;;;;;2.28;1.73;;;;;;;;;;5013727;28;20057;-76
2023/07/05 10:08:49;;;;;;;2.80;1.50;;;;;;;;;;5015080;28;20049;-75
2023/07/05 10:11:19;;;;;;;2.42;1.30;;;;;;;;;;5014804;28;20053;-76
2023/07/05 10:13:45;;;;;;;3.50;1.70;;;;;;;;;;5015140;28;20041;-77
2023/07/05 10:16:11;;;;;;;2.47;1.38;;;;;;;;;;5015038;28;20126;-75
2023/07/05 10:18:42;;;;;;;4.05;1.45;;;;;;;;;;5015114;28;20077;-75
2023/07/05 10:21:21;;;;;;;2.33;1.50;;;;;;;;;;5014715;28;20045;-76
2023/07/05 10:23:48;;;;;;;4.03;1.50;;;;;;;;;;5014700;28;20129;-76
2023/07/05 10:26:17;;;;;;;4.05;1.60;;;;;;;;;;5014633;28;20073;-76
2023/07/05 10:28:43;;;;;;;2.70;1.30;;;;;;;;;;5015349;28;20057;-76
2023/07/05 10:31:24;;;;;;;3.75;1.40;;;;;;;;;;5013408;28;20050;-76
2023/07/05 10:33:50;;;;;;;9.20;1.88;;;;;;;;;;5014175;28;20049;-76
2023/07/05 10:36:18;;;;;;;3.90;1.30;;;;;;;;;;5013211;28;20045;-76
2023/07/05 10:38:46;;;;;;;4.50;1.45;;;;;;;;;;5014577;28;20132;-76
2023/07/05 10:41:12;;;;;;;2.83;1.40;;;;;;;;;;5014471;28;20354;-76
2023/07/05 10:43:38;;;;;;;3.92;1.77;;;;;;;;;;5013251;28;20477;-76
2023/07/05 10:46:05;;;;;;;3.10;1.40;;;;;;;;;;5014167;28;20444;-76
2023/07/05 10:48:40;;;;;;;3.72;1.60;;;;;;;;;;5014158;28;20073;-76
2023/07/05 10:51:13;;;;;;;2.65;1.40;;;;;;;;;;5014560;28;20125;-76
2023/07/05 10:53:40;;;;;;;2.95;1.20;;;;;;;;;;5014404;28;20088;-76
2023/07/05 10:56:10;;;;;;;4.20;1.30;;;;;;;;;;5014536;28;20488;-76
2023/07/05 10:58:48;;;;;;;2.50;1.17;;;;;;;;;;5014690;28;20042;-76
2023/07/05 11:01:20;;;;;;;0.95;0.90;;;;;;;;;;5014330;28;20081;-76
2023/07/05 11:03:50;;;;;;;2.17;1.15;;;;;;;;;;5014829;28;20125;-76
2023/07/05 11:06:16;;;;;;;3.80;1.63;;;;;;;;;;5014064;28;20060;-77
2023/07/05 11:08:45;;;;;;;2.85;1.60;;;;;;;;;;5013971;28;20125;-76
2023/07/05 11:11:15;;;;;;;5.18;2.00;;;;;;;;;;5013998;28;20125;-76
2023/07/05 11:13:42;;;;;;;1.90;1.50;;;;;;;;;;5014268;28;20050;-76
2023/07/05 11:16:09;;;;;;;3.88;1.90;;;;;;;;;;5024708;28;20053;-76
2023/07/05 11:18:35;;;;;;;3.33;1.80;;;;;;;;;;5033534;28;20045;-76
2023/07/05 11:21:02;;;;;;;3.40;1.80;;;;;;;;;;5033552;28;20132;-77
2023/07/05 11:23:44;;;;;;;3.05;1.73;;;;;;;;;;5033765;28;20136;-76
2023/07/05 11:26:11;;;;;;;2.65;1.58;;;;;;;;;;5033084;28;20049;-77
2023/07/05 11:28:38;;;;;;;2.97;1.70;;;;;;;;;;5034007;28;20376;-76
2023/07/05 11:31:05;;;;;;;3.28;1.75;;;;;;;;;;5034100;28;20049;-76
2023/07/05 11:33:31;;;;;;;5.22;2.17;;;;;;;;;;5035008;28;20037;-76
2023/07/05 11:36:08;;;;;;;6.32;1.77;;;;;;;;;;5036471;28;20044;-76
2023/07/05 11:38:38;;;;;;;5.55;1.92;;;;;;;;;;5037408;28;20419;-76
2023/07/05 11:41:07;;;;;;;7.55;2.10;;;;;;;;;;5034831;28;20124;-76
2023/07/05 11:43:38;;;;;;;3.70;1.95;;;;;;;;;;5033470;28;20124;-76
2023/07/05 11:46:05;;;;;;;5.10;2.58;;;;;;;;;;5032851;28;20104;-76
2023/07/05 11:48:38;;;;;;;7.18;2.08;;;;;;;;;;5032886;28;20075;-77
2023/07/05 11:51:04;;;;;;;8.70;2.72;;;;;;;;;;5033319;28;20049;-76
2023/07/05 11:53:32;;;;;;;8.18;3.13;;;;;;;;;;5032872;28;20107;-76
2023/07/05 11:56:00;;;;;;;10.70;3.40;;;;;;;;;;5018571;28;20050;-76
2023/07/05 11:58:35;;;;;;;16.27;4.35;;;;;;;;;;5013209;28;20089;-76
2023/07/05 12:01:06;;;;;;;15.68;3.80;;;;;;;;;;5013010;28;20046;-76
2023/07/05 12:03:37;;;;;;;18.85;4.80;;;;;;;;;;5013424;28;20048;-77
2023/07/05 12:06:07;;;;;;;21.13;4.72;;;;;;;;;;5013363;28;20125;-77
2023/07/05 12:08:50;;;;;;;13.93;4.78;;;;;;;;;;5013665;28;20708;-76
2023/07/05 12:11:26;;;;;;;21.05;4.97;;;;;;;;;;5013144;28;20061;-76
2023/07/05 12:13:53;;;;;;;17.25;4.55;;;;;;;;;;5013153;28;20046;-76
2023/07/05 12:16:19;;;;;;;12.93;4.18;;;;;;;;;;5012728;28;20053;-76
2023/07/05 12:18:48;;;;;;;17.45;4.10;;;;;;;;;;5013010;28;20459;-76
2023/07/05 12:21:14;;;;;;;12.88;4.13;;;;;;;;;;5013105;28;20089;-77
2023/07/05 12:23:41;;;;;;;14.38;3.97;;;;;;;;;;5012284;28;20160;-77
2023/07/05 12:26:14;;;;;;;14.82;3.97;;;;;;;;;;5012614;28;20049;-77
2023/07/05 12:28:43;;;;;;;14.90;4.85;;;;;;;;;;5013296;28;20048;-76
2023/07/05 12:31:12;;;;;;;12.13;4.00;;;;;;;;;;5012981;28;20057;-77
2023/07/05 12:33:39;;;;;;;19.05;4.45;;;;;;;;;;5012671;28;20156;-77
2023/07/05 12:36:05;;;;;;;15.60;5.30;;;;;;;;;;5013139;28;20049;-76
2023/07/05 12:38:34;;;;;;;16.65;4.88;;;;;;;;;;5012939;28;20045;-76
2023/07/05 12:41:02;;;;;;;12.93;4.03;;;;;;;;;;5012770;28;20042;-76
2023/07/05 12:43:32;;;;;;;17.45;4.93;;;;;;;;;;5011524;28;20049;-77
2023/07/05 12:46:07;;;;;;;20.30;4.43;;;;;;;;;;5012973;28;20041;-77
2023/07/05 12:48:34;;;;;;;20.63;5.18;;;;;;;;;;5012614;28;20046;-76
2023/07/05 12:51:07;;;;;;;19.50;6.22;;;;;;;;;;5012323;28;20448;-77
2023/07/05 12:53:34;;;;;;;19.25;5.15;;;;;;;;;;5012323;28;20129;-76
2023/07/05 12:56:05;;;;;;;20.77;5.18;;;;;;;;;;5028147;28;20120;-76
2023/07/05 12:58:31;;;;;;;26.13;6.20;;;;;;;;;;5036008;28;20045;-76
2023/07/05 13:00:58;;;;;;;31.80;6.80;;;;;;;;;;5035752;28;20045;-76
2023/07/05 13:03:25;;;;;;;25.45;6.28;;;;;;;;;;5036026;28;20103;-76
2023/07/05 13:05:52;;;;;;;20.98;5.53;;;;;;;;;;5036158;28;20049;-76
2023/07/05 13:08:18;;;;;;;25.38;6.18;;;;;;;;;;5036217;28;20044;-76
2023/07/05 13:10:45;;;;;;;29.88;5.53;;;;;;;;;;5034560;28;20049;-75
2023/07/05 13:13:29;;;;;;;17.70;4.93;;;;;;;;;;5036108;28;20059;-77
2023/07/05 13:15:57;;;;;;;19.30;5.63;;;;;;;;;;5035795;28;20510;-76
2023/07/05 13:18:30;;;;;;;15.13;4.57;;;;;;;;;;5036238;28;20042;-76
2023/07/05 13:21:08;;;;;;;18.05;4.50;;;;;;;;;;5035727;28;20068;-76
2023/07/05 13:23:34;;;;;;;26.30;6.35;;;;;;;;;;5036478;28;20046;-77
2023/07/05 13:26:00;;;;;;;20.70;5.28;;;;;;;;;;5035556;28;20420;-77
2023/07/05 13:28:31;;;;;;;25.40;5.93;;;;;;;;;;5035743;28;20128;-76
2023/07/05 13:30:59;;;;;;;19.05;5.38;;;;;;;;;;5035626;28;20053;-76
2023/07/05 13:33:26;;;;;;;16.08;4.45;;;;;;;;;;5035408;28;20049;-76
2023/07/05 13:35:52;;;;;;;23.10;4.88;;;;;;;;;;5035360;28;20091;-75
2023/07/05 13:38:19;;;;;;;21.40;5.03;;;;;;;;;;5036092;28;20045;-77
2023/07/05 13:40:51;;;;;;;17.55;5.50;;;;;;;;;;5034919;28;20060;-78
2023/07/05 13:43:17;;;;;;;24.88;4.50;;;;;;;;;;5034068;28;20051;-77
2023/07/05 13:45:43;;;;;;;17.48;5.47;;;;;;;;;;5035374;28;20314;-76
2023/07/05 13:48:09;;;;;;;19.83;5.22;;;;;;;;;;5035213;28;20041;-76
2023/07/05 13:50:35;;;;;;;15.98;4.90;;;;;;;;;;5035247;28;20080;-77
2023/07/05 13:53:02;;;;;;;18.88;4.85;;;;;;;;;;5035398;28;20041;-76
2023/07/05 13:55:31;;;;;;;18.40;5.10;;;;;;;;;;5024724;28;20078;-76
2023/07/05 13:58:01;;;;;;;16.95;4.88;;;;;;;;;;5015822;28;20038;-75
2023/07/05 14:00:32;;;;;;;21.90;4.88;;;;;;;;;;5015001;28;20056;-76
2023/07/05 14:02:59;;;;;;;16.40;3.97;;;;;;;;;;5015024;28;20069;-75
2023/07/05 14:05:28;;;;;;;11.93;3.90;;;;;;;;;;5015217;28;20049;-75
2023/07/05 14:07:55;;;;;;;15.02;4.00;;;;;;;;;;5014527;28;20050;-75
2023/07/05 14:10:22;;;;;;;12.77;4.28;;;;;;;;;;5014981;28;20124;-75
2023/07/05 14:12:48;;;;;;;14.20;3.75;;;;;;;;;;5015357;28;20141;-75
2023/07/05 14:15:23;;;;;;;14.15;3.90;;;;;;;;;;5018239;28;20063;-75
2023/07/05 14:17:49;;;;;;;13.10;4.57;;;;;;;;;;5035172;28;20041;-76
2023/07/05 14:20:15;;;;;;;9.95;3.88;;;;;;;;;;5034873;28;20045;-75
2023/07/05 14:22:41;;;;;;;11.38;3.90;;;;;;;;;;5034882;28;20434;-75
2023/07/05 14:25:25;;;;;;;12.52;3.25;;;;;;;;;;5034600;28;20053;-76
2023/07/05 14:27:51;;;;;;;10.38;3.58;;;;;;;;;;5033914;28;20072;-75
2023/07/05 14:30:17;;;;;;;9.98;3.50;;;;;;;;;;5034669;28;20107;-75
2023/07/05 14:32:44;;;;;;;9.65;4.25;;;;;;;;;;5034672;28;20060;-75
2023/07/05 14:35:14;;;;;;;13.10;3.67;;;;;;;;;;5034480;28;20100;-75
2023/07/05 14:37:40;;;;;;;10.50;3.85;;;;;;;;;;5034585;28;20124;-76
2023/07/05 14:40:06;;;;;;;12.88;4.50;;;;;;;;;;5034145;28;20059;-75